createdAt,value
2019-03-28T00:02:01.672Z,5.3
2019-03-28T00:07:01.595Z,5.3
2019-03-28T00:12:01.633Z,5.3
2019-03-28T00:17:01.477Z,5.3
2019-03-28T00:22:01.599Z,5.3
2019-03-28T00:27:01.480Z,5.3
2019-03-28T00:32:01.584Z,5.3
2019-03-28T00:37:01.430Z,5.3
2019-03-28T00:42:01.535Z,5.3
2019-03-28T00:47:01.684Z,5.3
2019-03-28T00:52:01.609Z,5.3
2019-03-28T00:57:01.639Z,5.3
2019-03-28T01:02:01.693Z,5.2
2019-03-28T01:07:01.524Z,5.2
2019-03-28T01:12:02.191Z,5.3
2019-03-28T01:17:01.491Z,5.3
2019-03-28T01:22:01.516Z,5.3
2019-03-28T01:27:01.636Z,5.2
2019-03-28T01:32:01.812Z,5.2
2019-03-28T01:37:01.718Z,5.2
2019-03-28T01:42:01.636Z,5.2
2019-03-28T01:47:01.532Z,5.2
2019-03-28T01:52:04.132Z,5.2
2019-03-28T01:57:10.618Z,5.2
2019-03-28T02:02:01.639Z,5.2
2019-03-28T02:07:01.471Z,5.2
2019-03-28T02:12:01.607Z,5.2
2019-03-28T02:17:01.692Z,5.1
2019-03-28T02:22:01.533Z,5.2
2019-03-28T02:27:01.538Z,5.2
2019-03-28T02:32:01.543Z,5.1
2019-03-28T02:37:02.130Z,5.1
2019-03-28T02:42:01.848Z,5.1
2019-03-28T02:47:01.563Z,5.1
2019-03-28T02:52:02.835Z,5.1
2019-03-28T02:57:01.560Z,5.1
2019-03-28T03:02:02.195Z,5.1
2019-03-28T03:07:02.636Z,5.1
2019-03-28T03:12:02.262Z,5.1
2019-03-28T03:17:01.785Z,5.1
2019-03-28T03:22:03.105Z,5.1
2019-03-28T03:27:01.584Z,5
2019-03-28T03:32:01.516Z,5
2019-03-28T03:37:01.571Z,5
2019-03-28T03:42:02.072Z,5
2019-03-28T03:47:02.005Z,5
2019-03-28T03:52:01.584Z,5
2019-03-28T03:57:02.425Z,5
2019-03-28T04:02:02.477Z,5
2019-03-28T04:07:02.476Z,5
2019-03-28T04:12:02.521Z,5
2019-03-28T04:17:02.571Z,5
2019-03-28T04:22:02.592Z,5
2019-03-28T04:27:02.599Z,5
2019-03-28T04:32:02.600Z,5
2019-03-28T04:37:02.601Z,5
2019-03-28T04:42:02.602Z,5
2019-03-28T04:47:02.605Z,5
2019-03-28T04:52:02.607Z,5
2019-03-28T04:57:02.685Z,5
2019-03-28T05:02:03.535Z,5
2019-03-28T05:07:02.663Z,5
2019-03-28T05:12:02.621Z,5
2019-03-28T05:17:03.329Z,5
2019-03-28T05:22:03.330Z,5
2019-03-28T05:27:03.328Z,5
2019-03-28T05:32:03.376Z,5.1
2019-03-28T05:37:03.338Z,5.1
2019-03-28T05:42:03.389Z,5.1
2019-03-28T05:47:04.084Z,5.2
2019-03-28T05:52:04.089Z,5.2
2019-03-28T05:57:04.105Z,5.3
2019-03-28T06:02:04.096Z,5.4
2019-03-28T06:07:04.095Z,5.4
2019-03-28T06:12:04.115Z,5.5
2019-03-28T06:17:07.373Z,5.6
2019-03-28T06:22:07.397Z,5.7
2019-03-28T06:27:07.721Z,5.9
2019-03-28T06:32:07.528Z,6
2019-03-28T06:37:07.522Z,6.1
2019-03-28T06:42:07.536Z,6.2
2019-03-28T06:47:07.540Z,6.4
2019-03-28T06:52:07.563Z,6.5
2019-03-28T06:57:07.473Z,6.7
2019-03-28T07:02:07.540Z,6.9
2019-03-28T07:07:07.675Z,7
2019-03-28T07:12:07.546Z,7.2
2019-03-28T07:17:07.540Z,7.3
2019-03-28T07:22:07.545Z,7.5
2019-03-28T07:27:07.551Z,7.7
2019-03-28T07:32:07.552Z,7.9
2019-03-28T07:37:07.588Z,8
2019-03-28T07:42:07.599Z,8.2
2019-03-28T07:47:07.605Z,8.3
2019-03-28T07:52:07.640Z,8.5
2019-03-28T07:57:07.549Z,8.6
2019-03-28T08:02:07.606Z,8.8
2019-03-28T08:07:07.593Z,9
2019-03-28T08:12:21.320Z,9.2
2019-03-28T08:17:07.729Z,9.3
2019-03-28T08:22:07.570Z,9.4
2019-03-28T08:27:07.696Z,9.5
2019-03-28T08:32:07.621Z,9.5
2019-03-28T08:37:07.770Z,9.7
2019-03-28T08:42:07.576Z,9.8
2019-03-28T08:47:07.646Z,10
2019-03-28T08:52:07.654Z,10.2
2019-03-28T08:57:07.638Z,10.4
2019-03-28T09:02:07.639Z,10.5
2019-03-28T09:07:07.690Z,10.7
2019-03-28T09:12:07.726Z,10.8
2019-03-28T09:17:07.772Z,11.1
2019-03-28T09:22:07.752Z,11.3
2019-03-28T09:27:07.813Z,11.5
2019-03-28T09:32:07.852Z,11.6
2019-03-28T09:37:07.717Z,11.9
2019-03-28T09:42:07.778Z,12.1
2019-03-28T09:47:07.785Z,12.2
2019-03-28T09:52:07.806Z,12.1
2019-03-28T09:57:07.799Z,12.3
2019-03-28T10:02:07.805Z,12.6
2019-03-28T10:07:07.792Z,12.9
2019-03-28T10:12:07.807Z,12.8
2019-03-28T10:17:07.803Z,13
2019-03-28T10:22:07.932Z,13
2019-03-28T10:27:07.967Z,13.1
2019-03-28T10:32:07.966Z,13.4
2019-03-28T10:37:07.947Z,13.2
2019-03-28T10:42:07.986Z,13
2019-03-28T10:47:07.988Z,13.2
2019-03-28T10:52:07.980Z,13.3
2019-03-28T10:57:13.774Z,13.2
2019-03-28T11:02:07.947Z,13.1
2019-03-28T11:07:08.900Z,13.1
2019-03-28T11:12:07.982Z,13.1
2019-03-28T11:17:07.996Z,13.1
2019-03-28T11:22:08.016Z,13.1
2019-03-28T11:27:08.022Z,13.1
2019-03-28T11:32:08.023Z,13.1
2019-03-28T11:37:09.850Z,13
2019-03-28T11:42:08.025Z,13.2
2019-03-28T11:47:08.007Z,13.4
2019-03-28T11:52:08.024Z,13.3
2019-03-28T11:57:08.251Z,13.6
2019-03-28T12:02:19.508Z,13.9
2019-03-28T12:07:08.142Z,14.2
2019-03-28T12:12:08.500Z,14
2019-03-28T12:17:08.527Z,14.3
2019-03-28T12:22:08.502Z,14.1
2019-03-28T12:27:08.533Z,14.2
2019-03-28T12:32:14.088Z,14.5
2019-03-28T12:37:08.467Z,14.3
2019-03-28T12:42:08.536Z,14.3
2019-03-28T12:47:08.558Z,14.4
2019-03-28T12:52:08.526Z,14.1
2019-03-28T12:57:08.523Z,14.2
2019-03-28T13:02:08.554Z,14.1
2019-03-28T13:07:08.556Z,13.9
2019-03-28T13:12:08.574Z,14
2019-03-28T13:17:08.500Z,13.9
2019-03-28T13:22:08.557Z,13.8
2019-03-28T13:27:08.561Z,13.9
2019-03-28T13:32:08.544Z,13.9
2019-03-28T13:37:08.579Z,13.8
2019-03-28T13:42:08.660Z,13.7
2019-03-28T13:47:08.575Z,13.6
2019-03-28T13:52:08.566Z,13.5
2019-03-28T13:57:08.579Z,13.3
2019-03-28T14:02:08.594Z,13.3
2019-03-28T14:07:08.541Z,13.2
2019-03-28T14:12:08.612Z,13.2
2019-03-28T14:17:08.701Z,13.1
2019-03-28T14:22:08.601Z,13.2
2019-03-28T14:27:08.604Z,13.1
2019-03-28T14:32:08.605Z,13
2019-03-28T14:37:08.602Z,13
2019-03-28T14:42:08.592Z,13
2019-03-28T14:47:08.598Z,13
2019-03-28T14:52:08.596Z,12.9
2019-03-28T14:57:08.587Z,12.8
2019-03-28T15:02:08.612Z,12.8
2019-03-28T15:07:08.611Z,12.8
2019-03-28T15:12:08.615Z,12.7
2019-03-28T15:17:08.612Z,12.6
2019-03-28T15:22:08.623Z,12.5
2019-03-28T15:27:08.658Z,12.5
2019-03-28T15:32:08.606Z,12.5
2019-03-28T15:37:08.617Z,12.5
2019-03-28T15:42:08.639Z,12.4
2019-03-28T15:47:08.727Z,12.3
2019-03-28T15:52:08.628Z,12.3
2019-03-28T15:57:08.640Z,12.2
2019-03-28T16:02:08.648Z,12.2
2019-03-28T16:07:08.640Z,12.1
2019-03-28T16:12:08.640Z,12.1
2019-03-28T16:17:08.649Z,12.1
2019-03-28T16:22:08.639Z,12
2019-03-28T16:27:09.018Z,12
2019-03-28T16:32:09.028Z,11.9
2019-03-28T16:37:09.019Z,11.9
2019-03-28T16:42:09.028Z,11.8
2019-03-28T16:47:09.036Z,11.7
2019-03-28T16:52:09.031Z,11.7
2019-03-28T16:57:09.038Z,11.6
2019-03-28T17:02:08.978Z,11.5
2019-03-28T17:07:09.034Z,11.5
2019-03-28T17:12:09.199Z,11.4
2019-03-28T17:17:09.035Z,11.4
2019-03-28T17:22:09.516Z,11.3
2019-03-28T17:27:09.054Z,11.2
2019-03-28T17:32:09.063Z,11.2
2019-03-28T17:37:09.054Z,11.1
2019-03-28T17:42:09.043Z,11
2019-03-28T17:47:09.054Z,10.9
2019-03-28T17:52:09.032Z,10.8
2019-03-28T17:57:09.181Z,10.8
2019-03-28T18:02:09.143Z,10.7
2019-03-28T18:07:09.266Z,10.6
2019-03-28T18:12:11.659Z,10.6
2019-03-28T18:17:11.638Z,10.5
2019-03-28T18:22:11.545Z,10.4
2019-03-28T18:27:11.612Z,10.4
2019-03-28T18:32:11.597Z,10.3
2019-03-28T18:37:11.609Z,10.3
2019-03-28T18:42:11.626Z,10.2
2019-03-28T18:47:11.625Z,10.2
2019-03-28T18:52:11.627Z,10.1
2019-03-28T18:57:11.917Z,10
2019-03-28T19:02:11.562Z,9.9
2019-03-28T19:07:11.640Z,9.9
2019-03-28T19:12:11.628Z,9.9
2019-03-28T19:17:11.620Z,9.8
2019-03-28T19:22:11.646Z,9.8
2019-03-28T19:27:11.653Z,9.7
2019-03-28T19:32:11.722Z,9.7
2019-03-28T19:37:11.639Z,9.7
2019-03-28T19:42:11.672Z,9.6
2019-03-28T19:47:11.661Z,9.6
2019-03-28T19:52:13.195Z,9.6
2019-03-28T19:57:12.960Z,9.6
2019-03-28T20:02:14.181Z,9.5
2019-03-28T20:07:21.212Z,9.5
2019-03-28T20:12:11.688Z,9.5
2019-03-28T20:17:11.662Z,9.5
2019-03-28T20:22:11.688Z,9.4
2019-03-28T20:27:11.619Z,9.4
2019-03-28T20:32:11.896Z,9.4
2019-03-28T20:37:11.954Z,9.4
2019-03-28T20:42:11.668Z,9.4
2019-03-28T20:47:11.679Z,9.4
2019-03-28T20:52:11.706Z,9.3
2019-03-28T20:57:11.679Z,9.3
2019-03-28T21:02:11.633Z,9.3
2019-03-28T21:07:11.698Z,9.3
2019-03-28T21:12:11.698Z,9.2
2019-03-28T21:17:11.685Z,9.2
2019-03-28T21:22:11.682Z,9.2
2019-03-28T21:27:11.677Z,9.2
2019-03-28T21:32:11.649Z,9.2
2019-03-28T21:37:11.688Z,9.1
2019-03-28T21:42:12.077Z,9.1
2019-03-28T21:47:11.847Z,9.1
2019-03-28T21:52:11.692Z,9
2019-03-28T21:57:14.386Z,9
2019-03-28T22:02:11.684Z,8.9
2019-03-28T22:07:11.675Z,8.9
2019-03-28T22:12:11.704Z,8.8
2019-03-28T22:17:11.705Z,8.8
2019-03-28T22:22:11.711Z,8.7
2019-03-28T22:27:11.696Z,8.7
2019-03-28T22:32:11.951Z,8.6
2019-03-28T22:37:11.700Z,8.5
2019-03-28T22:42:11.719Z,8.4
2019-03-28T22:47:11.710Z,8.3
2019-03-28T22:52:11.698Z,8.2
2019-03-28T22:57:11.718Z,8.1
2019-03-28T23:02:11.727Z,8
2019-03-28T23:07:11.712Z,7.9
2019-03-28T23:12:11.717Z,7.8
2019-03-28T23:17:11.733Z,7.7
2019-03-28T23:22:11.672Z,7.5
2019-03-28T23:27:11.737Z,7.4
2019-03-28T23:32:12.847Z,7.3
2019-03-28T23:37:24.106Z,7.2
2019-03-28T23:42:11.739Z,7.1
2019-03-28T23:47:11.742Z,7.1
2019-03-28T23:52:11.681Z,7.1
2019-03-28T23:57:11.757Z,7.1
